sensor_id;sensor_type;location;lat;lon;timestamp;pressure;altitude;pressure_sealevel;temperature;humidity
39487;BME280;25173;50.430;18.926;2024-01-16T00:02:27;96494.13;;;3.22;61.08
39487;BME280;25173;50.430;18.926;2024-01-16T00:05:28;96503.56;;;3.25;60.98
39487;BME280;25173;50.430;18.926;2024-01-16T00:08:28;96494.69;;;3.24;60.92
39487;BME280;25173;50.430;18.926;2024-01-16T00:11:29;96497.38;;;3.24;61.04
39487;BME280;25173;50.430;18.926;2024-01-16T00:14:29;96514.28;;;3.20;61.03
39487;BME280;25173;50.430;18.926;2024-01-16T00:17:30;96507.84;;;3.21;61.31
39487;BME280;25173;50.430;18.926;2024-01-16T00:20:30;96510.78;;;3.19;61.51
39487;BME280;25173;50.430;18.926;2024-01-16T00:23:31;96515.09;;;3.15;61.58
39487;BME280;25173;50.430;18.926;2024-01-16T00:26:35;96530.44;;;3.15;61.92
39487;BME280;25173;50.430;18.926;2024-01-16T00:29:37;96533.94;;;3.20;62.06
39487;BME280;25173;50.430;18.926;2024-01-16T00:32:41;96526.41;;;3.27;61.87
39487;BME280;25173;50.430;18.926;2024-01-16T00:35:41;96525.09;;;3.25;61.80
39487;BME280;25173;50.430;18.926;2024-01-16T00:38:42;96532.06;;;3.16;61.92
39487;BME280;25173;50.430;18.926;2024-01-16T00:41:42;96535.00;;;3.09;61.96
39487;BME280;25173;50.430;18.926;2024-01-16T00:44:43;96542.53;;;3.07;62.22
39487;BME280;25173;50.430;18.926;2024-01-16T00:47:43;96546.03;;;3.02;61.89
39487;BME280;25173;50.430;18.926;2024-01-16T00:50:44;96539.81;;;2.97;62.02
39487;BME280;25173;50.430;18.926;2024-01-16T00:53:46;96548.94;;;2.91;62.13
39487;BME280;25173;50.430;18.926;2024-01-16T00:56:47;96552.16;;;2.88;62.47
39487;BME280;25173;50.430;18.926;2024-01-16T00:59:47;96563.19;;;2.91;62.51
39487;BME280;25173;50.430;18.926;2024-01-16T01:02:48;96555.69;;;2.98;62.30
39487;BME280;25173;50.430;18.926;2024-01-16T01:05:48;96560.28;;;3.03;62.31
39487;BME280;25173;50.430;18.926;2024-01-16T01:08:49;96559.19;;;3.04;61.91
39487;BME280;25173;50.430;18.926;2024-01-16T01:11:50;96556.22;;;3.05;61.99
39487;BME280;25173;50.430;18.926;2024-01-16T01:14:50;96567.28;;;3.09;61.91
39487;BME280;25173;50.430;18.926;2024-01-16T01:17:51;96565.13;;;3.16;61.97
39487;BME280;25173;50.430;18.926;2024-01-16T01:20:52;96558.69;;;3.22;61.65
39487;BME280;25173;50.430;18.926;2024-01-16T01:23:52;96549.81;;;3.27;61.43
39487;BME280;25173;50.430;18.926;2024-01-16T01:26:53;96553.03;;;3.34;61.48
39487;BME280;25173;50.430;18.926;2024-01-16T01:29:54;96550.13;;;3.40;61.15
39487;BME280;25173;50.430;18.926;2024-01-16T01:32:54;96559.00;;;3.46;61.04
39487;BME280;25173;50.430;18.926;2024-01-16T01:35:55;96547.97;;;3.47;60.70
39487;BME280;25173;50.430;18.926;2024-01-16T01:38:55;96548.78;;;3.53;60.72
39487;BME280;25173;50.430;18.926;2024-01-16T01:41:56;96547.44;;;3.61;60.65
39487;BME280;25173;50.430;18.926;2024-01-16T01:44:56;96548.50;;;3.70;60.38
39487;BME280;25173;50.430;18.926;2024-01-16T01:47:57;96543.13;;;3.75;59.83
39487;BME280;25173;50.430;18.926;2024-01-16T01:50:59;96556.03;;;3.78;59.81
39487;BME280;25173;50.430;18.926;2024-01-16T01:54:01;96549.56;;;3.74;59.91
39487;BME280;25173;50.430;18.926;2024-01-16T01:57:02;96547.44;;;3.76;59.78
39487;BME280;25173;50.430;18.926;2024-01-16T02:00:03;96560.31;;;3.79;59.78
39487;BME280;25173;50.430;18.926;2024-01-16T02:03:13;96552.53;;;3.82;59.69
39487;BME280;25173;50.430;18.926;2024-01-16T02:06:14;96556.03;;;3.78;59.52
39487;BME280;25173;50.430;18.926;2024-01-16T02:09:16;96562.75;;;3.75;59.39
39487;BME280;25173;50.430;18.926;2024-01-16T02:12:17;96573.25;;;3.72;59.57
39487;BME280;25173;50.430;18.926;2024-01-16T02:15:17;96574.88;;;3.73;59.57
39487;BME280;25173;50.430;18.926;2024-01-16T02:18:18;96572.19;;;3.78;59.61
39487;BME280;25173;50.430;18.926;2024-01-16T02:21:22;96564.38;;;3.71;59.21
39487;BME280;25173;50.430;18.926;2024-01-16T02:24:23;96568.44;;;3.69;59.71
39487;BME280;25173;50.430;18.926;2024-01-16T02:27:27;96567.34;;;3.65;59.56
39487;BME280;25173;50.430;18.926;2024-01-16T02:30:27;96579.72;;;3.66;59.71
39487;BME280;25173;50.430;18.926;2024-01-16T02:33:28;96592.09;;;3.72;59.90
39487;BME280;25173;50.430;18.926;2024-01-16T02:36:29;96581.88;;;3.79;60.13
39487;BME280;25173;50.430;18.926;2024-01-16T02:39:29;96594.78;;;3.67;60.54
39487;BME280;25173;50.430;18.926;2024-01-16T02:42:31;96614.72;;;3.61;61.38
39487;BME280;25173;50.430;18.926;2024-01-16T02:45:31;96603.13;;;3.45;62.19
39487;BME280;25173;50.430;18.926;2024-01-16T02:48:32;96616.03;;;3.33;63.13
39487;BME280;25173;50.430;18.926;2024-01-16T02:51:33;96621.06;;;3.14;63.80
39487;BME280;25173;50.430;18.926;2024-01-16T02:54:33;96614.81;;;2.98;64.33
39487;BME280;25173;50.430;18.926;2024-01-16T02:57:34;96617.75;;;2.92;64.88
39487;BME280;25173;50.430;18.926;2024-01-16T03:00:34;96609.13;;;2.85;65.14
39487;BME280;25173;50.430;18.926;2024-01-16T03:03:35;96611.28;;;2.83;65.61
39487;BME280;25173;50.430;18.926;2024-01-16T03:06:36;96616.13;;;2.81;65.81
39487;BME280;25173;50.430;18.926;2024-01-16T03:09:36;96619.34;;;2.83;65.92
39487;BME280;25173;50.430;18.926;2024-01-16T03:12:37;96623.91;;;2.82;66.06
39487;BME280;25173;50.430;18.926;2024-01-16T03:15:38;96629.00;;;2.79;66.21
39487;BME280;25173;50.430;18.926;2024-01-16T03:18:38;96632.25;;;2.81;66.25
39487;BME280;25173;50.430;18.926;2024-01-16T03:21:39;96631.97;;;2.82;66.46
39487;BME280;25173;50.430;18.926;2024-01-16T03:24:39;96633.84;;;2.82;66.54
39487;BME280;25173;50.430;18.926;2024-01-16T03:27:41;96629.25;;;2.72;66.95
39487;BME280;25173;50.430;18.926;2024-01-16T03:30:41;96634.31;;;2.68;67.14
39487;BME280;25173;50.430;18.926;2024-01-16T03:33:42;96636.69;;;2.60;67.10
39487;BME280;25173;50.430;18.926;2024-01-16T03:36:43;96640.69;;;2.52;67.41
39487;BME280;25173;50.430;18.926;2024-01-16T03:39:44;96638.22;;;2.46;67.83
39487;BME280;25173;50.430;18.926;2024-01-16T03:42:45;96658.88;;;2.40;68.22
39487;BME280;25173;50.430;18.926;2024-01-16T03:45:45;96695.13;;;2.38;68.54
39487;BME280;25173;50.430;18.926;2024-01-16T03:48:46;96712.47;;;2.20;69.46
39487;BME280;25173;50.430;18.926;2024-01-16T03:51:46;96711.28;;;2.06;69.54
39487;BME280;25173;50.430;18.926;2024-01-16T03:54:47;96725.38;;;1.91;69.82
39487;BME280;25173;50.430;18.926;2024-01-16T03:57:48;96724.25;;;1.87;69.72
39487;BME280;25173;50.430;18.926;2024-01-16T04:00:49;96730.41;;;1.87;69.53
39487;BME280;25173;50.430;18.926;2024-01-16T04:03:51;96747.28;;;1.83;69.76
39487;BME280;25173;50.430;18.926;2024-01-16T04:06:51;96743.47;;;1.79;69.55
39487;BME280;25173;50.430;18.926;2024-01-16T04:09:52;96757.19;;;1.77;69.23
39487;BME280;25173;50.430;18.926;2024-01-16T04:12:53;96761.97;;;1.75;68.93
39487;BME280;25173;50.430;18.926;2024-01-16T04:15:53;96777.25;;;1.75;69.06
39487;BME280;25173;50.430;18.926;2024-01-16T04:18:54;96767.75;;;1.62;69.03
39487;BME280;25173;50.430;18.926;2024-01-16T04:21:54;96751.56;;;1.57;69.21
39487;BME280;25173;50.430;18.926;2024-01-16T04:24:55;96752.63;;;1.56;68.78
39487;BME280;25173;50.430;18.926;2024-01-16T04:27:55;96755.88;;;1.58;68.82
39487;BME280;25173;50.430;18.926;2024-01-16T04:30:56;96757.88;;;1.46;68.60
39487;BME280;25173;50.430;18.926;2024-01-16T04:33:56;96765.38;;;1.44;68.55
39487;BME280;25173;50.430;18.926;2024-01-16T04:37:00;96759.16;;;1.38;68.55
39487;BME280;25173;50.430;18.926;2024-01-16T04:40:01;96766.88;;;1.35;68.26
39487;BME280;25173;50.430;18.926;2024-01-16T04:43:03;96759.88;;;1.34;68.11
39487;BME280;25173;50.430;18.926;2024-01-16T04:46:03;96763.44;;;1.39;68.17
39487;BME280;25173;50.430;18.926;2024-01-16T04:49:04;96768.63;;;1.46;68.00
39487;BME280;25173;50.430;18.926;2024-01-16T04:52:04;96771.91;;;1.53;67.86
39487;BME280;25173;50.430;18.926;2024-01-16T04:55:05;96778.38;;;1.57;67.45
39487;BME280;25173;50.430;18.926;2024-01-16T04:58:06;96785.94;;;1.60;67.27
39487;BME280;25173;50.430;18.926;2024-01-16T05:01:07;96790.03;;;1.63;67.44
39487;BME280;25173;50.430;18.926;2024-01-16T05:04:08;96793.84;;;1.72;67.27
39487;BME280;25173;50.430;18.926;2024-01-16T05:07:10;96798.78;;;1.80;67.24
39487;BME280;25173;50.430;18.926;2024-01-16T05:10:11;96801.81;;;1.88;67.07
39487;BME280;25173;50.430;18.926;2024-01-16T05:13:15;96800.31;;;1.98;66.98
39487;BME280;25173;50.430;18.926;2024-01-16T05:16:16;96799.50;;;1.97;66.75
39487;BME280;25173;50.430;18.926;2024-01-16T05:19:16;96814.56;;;1.98;66.94
39487;BME280;25173;50.430;18.926;2024-01-16T05:22:17;96807.56;;;1.97;66.83
39487;BME280;25173;50.430;18.926;2024-01-16T05:25:17;96814.69;;;1.86;66.79
39487;BME280;25173;50.430;18.926;2024-01-16T05:28:18;96810.91;;;1.82;67.17
39487;BME280;25173;50.430;18.926;2024-01-16T05:31:19;96812.44;;;1.78;67.00
39487;BME280;25173;50.430;18.926;2024-01-16T05:34:20;96823.19;;;1.78;67.33
39487;BME280;25173;50.430;18.926;2024-01-16T05:37:20;96826.47;;;1.85;67.04
39487;BME280;25173;50.430;18.926;2024-01-16T05:40:21;96830.59;;;1.93;67.12
39487;BME280;25173;50.430;18.926;2024-01-16T05:43:22;96833.97;;;2.05;67.06
39487;BME280;25173;50.430;18.926;2024-01-16T05:46:23;96833.25;;;2.15;66.85
39487;BME280;25173;50.430;18.926;2024-01-16T05:49:23;96834.94;;;2.21;66.47
39487;BME280;25173;50.430;18.926;2024-01-16T05:52:24;96836.81;;;2.20;66.67
39487;BME280;25173;50.430;18.926;2024-01-16T05:55:24;96845.09;;;2.19;66.54
39487;BME280;25173;50.430;18.926;2024-01-16T05:58:25;96853.22;;;2.24;66.99
39487;BME280;25173;50.430;18.926;2024-01-16T06:01:25;96865.09;;;2.28;66.84
39487;BME280;25173;50.430;18.926;2024-01-16T06:04:27;96865.69;;;2.35;66.74
39487;BME280;25173;50.430;18.926;2024-01-16T06:07:28;96865.53;;;2.47;67.06
39487;BME280;25173;50.430;18.926;2024-01-16T06:10:28;96867.50;;;2.56;66.88
39487;BME280;25173;50.430;18.926;2024-01-16T06:13:29;96871.59;;;2.64;66.82
39487;BME280;25173;50.430;18.926;2024-01-16T06:16:32;96878.63;;;2.70;66.64
39487;BME280;25173;50.430;18.926;2024-01-16T06:19:32;96889.72;;;2.73;66.69
39487;BME280;25173;50.430;18.926;2024-01-16T06:22:33;96890.19;;;2.70;66.41
39487;BME280;25173;50.430;18.926;2024-01-16T06:25:34;96896.06;;;2.67;66.68
39487;BME280;25173;50.430;18.926;2024-01-16T06:28:34;96903.00;;;2.58;66.78
39487;BME280;25173;50.430;18.926;2024-01-16T06:31:35;96913.44;;;2.55;67.07
39487;BME280;25173;50.430;18.926;2024-01-16T06:34:35;96919.88;;;2.54;67.10
39487;BME280;25173;50.430;18.926;2024-01-16T06:37:36;96930.56;;;2.49;67.51
39487;BME280;25173;50.430;18.926;2024-01-16T06:40:37;96937.00;;;2.48;67.42
39487;BME280;25173;50.430;18.926;2024-01-16T06:43:38;96928.56;;;2.39;67.71
39487;BME280;25173;50.430;18.926;2024-01-16T06:46:39;96936.16;;;2.42;68.15
39487;BME280;25173;50.430;18.926;2024-01-16T06:49:41;96923.88;;;2.51;67.98
39487;BME280;25173;50.430;18.926;2024-01-16T06:52:42;96933.00;;;2.50;67.61
39487;BME280;25173;50.430;18.926;2024-01-16T06:55:42;96929.78;;;2.53;67.76
39487;BME280;25173;50.430;18.926;2024-01-16T06:58:43;96943.75;;;2.50;67.49
39487;BME280;25173;50.430;18.926;2024-01-16T07:01:44;96963.66;;;2.54;67.87
39487;BME280;25173;50.430;18.926;2024-01-16T07:04:45;96979.22;;;2.52;67.64
39487;BME280;25173;50.430;18.926;2024-01-16T07:07:45;96980.31;;;2.51;67.73
39487;BME280;25173;50.430;18.926;2024-01-16T07:10:46;96965.88;;;2.57;67.84
39487;BME280;25173;50.430;18.926;2024-01-16T07:13:46;96957.84;;;2.62;67.92
39487;BME280;25173;50.430;18.926;2024-01-16T07:16:47;96959.53;;;2.68;67.63
39487;BME280;25173;50.430;18.926;2024-01-16T07:19:47;96971.66;;;2.71;67.46
39487;BME280;25173;50.430;18.926;2024-01-16T07:22:48;96973.88;;;2.79;67.58
39487;BME280;25173;50.430;18.926;2024-01-16T07:25:48;96982.00;;;2.84;67.36
39487;BME280;25173;50.430;18.926;2024-01-16T07:28:49;96979.56;;;2.83;67.37
39487;BME280;25173;50.430;18.926;2024-01-16T07:31:49;96982.19;;;2.78;67.21
39487;BME280;25173;50.430;18.926;2024-01-16T07:34:50;96989.19;;;2.79;67.61
39487;BME280;25173;50.430;18.926;2024-01-16T07:37:52;96990.31;;;2.83;67.63
39487;BME280;25173;50.430;18.926;2024-01-16T07:40:53;96979.31;;;2.84;67.82
39487;BME280;25173;50.430;18.926;2024-01-16T07:43:54;96991.63;;;2.80;67.75
39487;BME280;25173;50.430;18.926;2024-01-16T07:46:54;96995.19;;;2.86;67.80
39487;BME280;25173;50.430;18.926;2024-01-16T07:49:55;96993.28;;;2.81;67.89
39487;BME280;25173;50.430;18.926;2024-01-16T07:52:55;97001.88;;;2.83;68.06
39487;BME280;25173;50.430;18.926;2024-01-16T07:55:56;97005.38;;;2.84;68.41
39487;BME280;25173;50.430;18.926;2024-01-16T07:58:57;97012.41;;;2.90;68.15
39487;BME280;25173;50.430;18.926;2024-01-16T08:01:57;97012.94;;;2.87;68.12
39487;BME280;25173;50.430;18.926;2024-01-16T08:04:58;97007.56;;;2.87;68.29
39487;BME280;25173;50.430;18.926;2024-01-16T08:07:58;97019.66;;;2.89;68.14
39487;BME280;25173;50.430;18.926;2024-01-16T08:10:59;97021.31;;;2.90;68.22
39487;BME280;25173;50.430;18.926;2024-01-16T08:13:59;97025.38;;;2.93;68.39
39487;BME280;25173;50.430;18.926;2024-01-16T08:17:00;97025.97;;;3.00;68.17
39487;BME280;25173;50.430;18.926;2024-01-16T08:20:01;97024.88;;;2.96;68.19
39487;BME280;25173;50.430;18.926;2024-01-16T08:23:01;97032.88;;;2.91;67.98
39487;BME280;25173;50.430;18.926;2024-01-16T08:26:02;97022.31;;;2.84;67.95
39487;BME280;25173;50.430;18.926;2024-01-16T08:29:03;97030.69;;;2.88;67.97
39487;BME280;25173;50.430;18.926;2024-01-16T08:32:04;97031.31;;;2.95;68.05
39487;BME280;25173;50.430;18.926;2024-01-16T08:35:05;97044.91;;;3.10;67.85
39487;BME280;25173;50.430;18.926;2024-01-16T08:38:06;97042.44;;;3.35;67.67
39487;BME280;25173;50.430;18.926;2024-01-16T08:41:06;97050.63;;;3.45;67.25
39487;BME280;25173;50.430;18.926;2024-01-16T08:44:07;97059.19;;;3.42;66.91
39487;BME280;25173;50.430;18.926;2024-01-16T08:47:08;97055.06;;;3.30;67.09
39487;BME280;25173;50.430;18.926;2024-01-16T08:50:08;97068.75;;;3.28;67.68
39487;BME280;25173;50.430;18.926;2024-01-16T08:53:09;97072.47;;;3.22;67.36
39487;BME280;25173;50.430;18.926;2024-01-16T08:56:10;97074.06;;;3.18;67.77
39487;BME280;25173;50.430;18.926;2024-01-16T08:59:12;97080.84;;;3.26;67.99
39487;BME280;25173;50.430;18.926;2024-01-16T09:02:12;97082.78;;;3.30;67.75
39487;BME280;25173;50.430;18.926;2024-01-16T09:05:13;97077.28;;;3.20;67.19
39487;BME280;25173;50.430;18.926;2024-01-16T09:08:15;97086.88;;;3.11;67.51
39487;BME280;25173;50.430;18.926;2024-01-16T09:11:15;97105.78;;;2.94;67.21
39487;BME280;25173;50.430;18.926;2024-01-16T09:14:16;97097.50;;;2.74;67.98
39487;BME280;25173;50.430;18.926;2024-01-16T09:17:16;97103.41;;;2.76;68.18
39487;BME280;25173;50.430;18.926;2024-01-16T09:20:17;97103.72;;;2.80;67.93
39487;BME280;25173;50.430;18.926;2024-01-16T09:23:17;97114.41;;;2.74;67.69
39487;BME280;25173;50.430;18.926;2024-01-16T09:26:18;97123.47;;;2.68;67.84
39487;BME280;25173;50.430;18.926;2024-01-16T09:29:18;97129.91;;;2.67;67.64
39487;BME280;25173;50.430;18.926;2024-01-16T09:32:19;97134.03;;;2.75;67.82
39487;BME280;25173;50.430;18.926;2024-01-16T09:35:20;97137.34;;;2.82;67.83
39487;BME280;25173;50.430;18.926;2024-01-16T09:38:20;97142.47;;;2.84;67.49
39487;BME280;25173;50.430;18.926;2024-01-16T09:41:21;97158.69;;;2.89;67.62
39487;BME280;25173;50.430;18.926;2024-01-16T09:44:22;97145.69;;;2.81;67.82
39487;BME280;25173;50.430;18.926;2024-01-16T09:47:24;97147.28;;;2.82;67.97
39487;BME280;25173;50.430;18.926;2024-01-16T09:50:25;97143.00;;;2.81;68.25
39487;BME280;25173;50.430;18.926;2024-01-16T09:53:25;97149.50;;;2.85;68.32
39487;BME280;25173;50.430;18.926;2024-01-16T09:56:27;97143.31;;;2.84;68.62
39487;BME280;25173;50.430;18.926;2024-01-16T09:59:31;97155.19;;;2.88;68.88
39487;BME280;25173;50.430;18.926;2024-01-16T10:02:32;97145.97;;;2.84;69.00
39487;BME280;25173;50.430;18.926;2024-01-16T10:05:33;97143.09;;;2.91;69.24
39487;BME280;25173;50.430;18.926;2024-01-16T10:08:34;97149.63;;;2.95;69.47
39487;BME280;25173;50.430;18.926;2024-01-16T10:11:35;97150.88;;;3.09;69.58
39487;BME280;25173;50.430;18.926;2024-01-16T10:14:37;97157.16;;;3.20;69.57
39487;BME280;25173;50.430;18.926;2024-01-16T10:17:40;97163.25;;;3.32;69.29
39487;BME280;25173;50.430;18.926;2024-01-16T10:20:41;97162.47;;;3.36;69.31
39487;BME280;25173;50.430;18.926;2024-01-16T10:23:41;97176.06;;;3.46;69.13
39487;BME280;25173;50.430;18.926;2024-01-16T10:26:42;97176.50;;;3.38;69.01
39487;BME280;25173;50.430;18.926;2024-01-16T10:29:55;97175.88;;;3.31;69.04
39487;BME280;25173;50.430;18.926;2024-01-16T10:33:12;97173.25;;;3.36;69.64
39487;BME280;25173;50.430;18.926;2024-01-16T10:36:14;97175.81;;;3.48;69.89
39487;BME280;25173;50.430;18.926;2024-01-16T10:39:17;97170.06;;;3.66;69.44
39487;BME280;25173;50.430;18.926;2024-01-16T10:42:17;97177.94;;;3.73;69.21
39487;BME280;25173;50.430;18.926;2024-01-16T10:45:20;97180.94;;;3.76;69.13
39487;BME280;25173;50.430;18.926;2024-01-16T10:48:22;97191.09;;;3.69;68.97
39487;BME280;25173;50.430;18.926;2024-01-16T10:51:23;97195.94;;;3.72;68.94
39487;BME280;25173;50.430;18.926;2024-01-16T10:54:24;97202.94;;;3.68;68.85
39487;BME280;25173;50.430;18.926;2024-01-16T10:57:25;97201.50;;;3.61;69.17
39487;BME280;25173;50.430;18.926;2024-01-16T11:00:27;97202.94;;;3.68;69.19
39487;BME280;25173;50.430;18.926;2024-01-16T11:06:39;97220.81;;;3.31;68.08
39487;BME280;25173;50.430;18.926;2024-01-16T11:09:40;97226.44;;;3.07;68.28
39487;BME280;25173;50.430;18.926;2024-01-16T11:12:42;97218.34;;;2.86;69.37
39487;BME280;25173;50.430;18.926;2024-01-16T11:15:47;97228.13;;;2.75;69.35
39487;BME280;25173;50.430;18.926;2024-01-16T11:18:48;97228.88;;;2.70;69.20
39487;BME280;25173;50.430;18.926;2024-01-16T11:21:49;97231.00;;;2.68;69.39
39487;BME280;25173;50.430;18.926;2024-01-16T11:25:10;97232.13;;;2.72;69.25
39487;BME280;25173;50.430;18.926;2024-01-16T11:28:12;97237.50;;;2.72;69.02
39487;BME280;25173;50.430;18.926;2024-01-16T11:31:30;97239.44;;;2.77;69.12
39487;BME280;25173;50.430;18.926;2024-01-16T11:37:49;97236.69;;;2.89;69.35
39487;BME280;25173;50.430;18.926;2024-01-16T11:40:50;97235.44;;;2.96;69.34
39487;BME280;25173;50.430;18.926;2024-01-16T11:43:51;97235.56;;;3.06;69.01
39487;BME280;25173;50.430;18.926;2024-01-16T11:47:01;97249.16;;;3.17;69.24
39487;BME280;25173;50.430;18.926;2024-01-16T11:50:27;97244.06;;;3.20;68.82
39487;BME280;25173;50.430;18.926;2024-01-16T11:53:32;97246.84;;;3.25;68.99
39487;BME280;25173;50.430;18.926;2024-01-16T12:00:19;97230.19;;;3.28;68.12
39487;BME280;25173;50.430;18.926;2024-01-16T12:03:21;97236.56;;;3.22;67.77
39487;BME280;25173;50.430;18.926;2024-01-16T12:06:22;97238.00;;;3.08;67.29
39487;BME280;25173;50.430;18.926;2024-01-16T12:09:26;97234.53;;;2.91;67.20
39487;BME280;25173;50.430;18.926;2024-01-16T12:12:27;97242.53;;;2.86;67.71
39487;BME280;25173;50.430;18.926;2024-01-16T12:15:27;97248.56;;;2.76;67.19
39487;BME280;25173;50.430;18.926;2024-01-16T12:18:28;97248.88;;;2.96;68.38
39487;BME280;25173;50.430;18.926;2024-01-16T12:21:29;97245.31;;;3.34;68.34
39487;BME280;25173;50.430;18.926;2024-01-16T12:24:29;97255.59;;;3.59;66.96
39487;BME280;25173;50.430;18.926;2024-01-16T12:27:30;97252.44;;;3.67;66.93
39487;BME280;25173;50.430;18.926;2024-01-16T12:30:35;97244.78;;;3.81;66.40
39487;BME280;25173;50.430;18.926;2024-01-16T12:33:36;97245.91;;;3.85;65.64
39487;BME280;25173;50.430;18.926;2024-01-16T12:36:37;97244.28;;;3.84;66.31
39487;BME280;25173;50.430;18.926;2024-01-16T12:39:38;97245.91;;;3.85;66.19
39487;BME280;25173;50.430;18.926;2024-01-16T12:42:39;97238.91;;;3.84;65.89
39487;BME280;25173;50.430;18.926;2024-01-16T12:45:40;97231.69;;;3.89;65.70
39487;BME280;25173;50.430;18.926;2024-01-16T12:48:40;97229.84;;;3.95;65.11
39487;BME280;25173;50.430;18.926;2024-01-16T12:51:41;97236.41;;;4.04;65.45
39487;BME280;25173;50.430;18.926;2024-01-16T12:54:42;97240.78;;;4.10;64.92
39487;BME280;25173;50.430;18.926;2024-01-16T12:57:42;97237.00;;;4.11;65.01
39487;BME280;25173;50.430;18.926;2024-01-16T13:00:50;97237.56;;;4.13;64.95
39487;BME280;25173;50.430;18.926;2024-01-16T13:03:51;97239.81;;;4.21;65.44
39487;BME280;25173;50.430;18.926;2024-01-16T13:07:03;97247.44;;;4.29;64.92
39487;BME280;25173;50.430;18.926;2024-01-16T13:10:08;97234.44;;;4.26;65.06
39487;BME280;25173;50.430;18.926;2024-01-16T13:13:18;97245.78;;;4.28;64.58
39487;BME280;25173;50.430;18.926;2024-01-16T13:16:19;97242.53;;;4.26;64.97
39487;BME280;25173;50.430;18.926;2024-01-16T13:19:19;97249.25;;;4.24;64.77
39487;BME280;25173;50.430;18.926;2024-01-16T13:22:20;97256.56;;;4.28;65.57
39487;BME280;25173;50.430;18.926;2024-01-16T13:25:21;97261.97;;;4.28;64.75
39487;BME280;25173;50.430;18.926;2024-01-16T13:28:22;97257.31;;;4.24;65.03
39487;BME280;25173;50.430;18.926;2024-01-16T13:31:24;97253.41;;;4.37;65.58
39487;BME280;25173;50.430;18.926;2024-01-16T13:34:25;97264.47;;;4.40;65.04
39487;BME280;25173;50.430;18.926;2024-01-16T13:37:25;97274.38;;;4.29;64.45
39487;BME280;25173;50.430;18.926;2024-01-16T13:40:26;97273.22;;;4.20;64.66
39487;BME280;25173;50.430;18.926;2024-01-16T13:43:26;97289.31;;;4.15;64.73
39487;BME280;25173;50.430;18.926;2024-01-16T13:46:27;97289.59;;;4.14;64.80
39487;BME280;25173;50.430;18.926;2024-01-16T13:49:27;97296.84;;;4.13;64.63
39487;BME280;25173;50.430;18.926;2024-01-16T13:52:28;97299.19;;;4.05;64.90
39487;BME280;25173;50.430;18.926;2024-01-16T13:55:29;97300.84;;;3.84;65.59
39487;BME280;25173;50.430;18.926;2024-01-16T13:58:32;97297.97;;;3.69;66.03
39487;BME280;25173;50.430;18.926;2024-01-16T14:01:32;97306.97;;;3.58;66.64
39487;BME280;25173;50.430;18.926;2024-01-16T14:04:33;97308.56;;;3.54;67.18
39487;BME280;25173;50.430;18.926;2024-01-16T14:07:34;97313.31;;;3.46;67.28
39487;BME280;25173;50.430;18.926;2024-01-16T14:10:35;97323.94;;;3.36;67.23
39487;BME280;25173;50.430;18.926;2024-01-16T14:13:35;97328.53;;;3.19;67.21
39487;BME280;25173;50.430;18.926;2024-01-16T14:16:37;97333.25;;;3.12;67.67
39487;BME280;25173;50.430;18.926;2024-01-16T14:19:38;97334.19;;;3.01;67.55
39487;BME280;25173;50.430;18.926;2024-01-16T14:22:39;97348.78;;;2.88;67.81
39487;BME280;25173;50.430;18.926;2024-01-16T14:25:40;97363.94;;;2.78;68.25
39487;BME280;25173;50.430;18.926;2024-01-16T14:28:40;97360.66;;;2.76;68.25
39487;BME280;25173;50.430;18.926;2024-01-16T14:31:41;97353.00;;;2.67;68.17
39487;BME280;25173;50.430;18.926;2024-01-16T14:34:44;97360.50;;;2.65;68.48
39487;BME280;25173;50.430;18.926;2024-01-16T14:37:45;97357.91;;;2.70;68.60
39487;BME280;25173;50.430;18.926;2024-01-16T14:40:45;97368.66;;;2.70;68.16
39487;BME280;25173;50.430;18.926;2024-01-16T14:43:46;97370.75;;;2.68;68.09
39487;BME280;25173;50.430;18.926;2024-01-16T14:46:46;97364.34;;;2.69;68.18
39487;BME280;25173;50.430;18.926;2024-01-16T14:49:47;97367.59;;;2.71;67.92
39487;BME280;25173;50.430;18.926;2024-01-16T14:52:49;97371.34;;;2.70;67.82
39487;BME280;25173;50.430;18.926;2024-01-16T14:55:49;97367.34;;;2.73;67.78
39487;BME280;25173;50.430;18.926;2024-01-16T14:58:50;97381.34;;;2.75;67.76
39487;BME280;25173;50.430;18.926;2024-01-16T15:01:50;97380.38;;;2.64;67.43
39487;BME280;25173;50.430;18.926;2024-01-16T15:04:53;97380.84;;;2.61;67.54
39487;BME280;25173;50.430;18.926;2024-01-16T15:07:54;97396.75;;;2.63;67.70
39487;BME280;25173;50.430;18.926;2024-01-16T15:10:54;97384.03;;;2.58;67.29
39487;BME280;25173;50.430;18.926;2024-01-16T15:13:55;97396.81;;;2.51;67.10
39487;BME280;25173;50.430;18.926;2024-01-16T15:16:57;97394.16;;;2.40;66.86
39487;BME280;25173;50.430;18.926;2024-01-16T15:19:58;97408.81;;;2.32;67.01
39487;BME280;25173;50.430;18.926;2024-01-16T15:22:59;97404.97;;;2.28;67.25
39487;BME280;25173;50.430;18.926;2024-01-16T15:25:59;97422.81;;;2.34;67.47
39487;BME280;25173;50.430;18.926;2024-01-16T15:29:04;97420.72;;;2.36;67.04
39487;BME280;25173;50.430;18.926;2024-01-16T15:32:06;97435.88;;;2.42;67.50
39487;BME280;25173;50.430;18.926;2024-01-16T15:35:07;97436.47;;;2.44;67.46
39487;BME280;25173;50.430;18.926;2024-01-16T15:38:08;97438.19;;;2.50;67.41
39487;BME280;25173;50.430;18.926;2024-01-16T15:41:10;97447.50;;;2.59;67.61
39487;BME280;25173;50.430;18.926;2024-01-16T15:44:11;97451.97;;;2.70;67.71
39487;BME280;25173;50.430;18.926;2024-01-16T15:47:12;97459.84;;;2.89;67.78
39487;BME280;25173;50.430;18.926;2024-01-16T15:50:12;97463.66;;;2.93;67.31
39487;BME280;25173;50.430;18.926;2024-01-16T15:53:13;97464.25;;;2.95;66.97
39487;BME280;25173;50.430;18.926;2024-01-16T15:56:15;97476.22;;;3.04;67.15
39487;BME280;25173;50.430;18.926;2024-01-16T15:59:16;97476.09;;;3.10;66.85
39487;BME280;25173;50.430;18.926;2024-01-16T16:02:17;97469.72;;;3.00;66.13
39487;BME280;25173;50.430;18.926;2024-01-16T16:05:17;97476.72;;;3.01;66.51
39487;BME280;25173;50.430;18.926;2024-01-16T16:08:19;97482.09;;;3.01;66.33
39487;BME280;25173;50.430;18.926;2024-01-16T16:11:22;97481.53;;;2.99;66.41